Time;durP1;ratioP1;P1;durP2;ratioP2;P2;SDS_P1;SDS_P2;PMS_P1;PMS_P2;Temp;Humidity;BMP_temperature;BMP_pressure;BME280_temperature;BME280_humidity;BME280_pressure;Samples;Min_cycle;Max_cycle;Signal;HPM_P1;HPM_P2
2023/09/04 00:01:20;;;;;;;16.52;8.25;;;;;;;22.44;67.74;99986.56;5061945;28;20070;-33
2023/09/04 00:03:46;;;;;;;12.93;6.20;;;;;;;22.28;68.61;99975.19;5061953;28;20020;-31
2023/09/04 00:06:11;;;;;;;10.30;4.82;;;;;;;22.08;69.63;99982.53;5061730;28;20086;-32
2023/09/04 00:08:57;;;;;;;12.88;6.47;;;;;;;22.02;70.49;99983.72;5062037;28;20035;-33
2023/09/04 00:12:03;;;;;;;9.60;5.43;;;;;;;21.97;70.57;99981.09;5061763;28;20032;-31
2023/09/04 00:14:58;;;;;;;6.53;4.18;;;;;;;21.96;71.15;99974.03;5087495;28;20123;-32
2023/09/04 00:17:23;;;;;;;7.68;3.92;;;;;;;22.19;69.98;99974.22;5100211;28;20507;-32
2023/09/04 00:19:48;;;;;;;14.95;6.00;;;;;;;22.04;70.40;99970.66;5104764;28;20035;-29
2023/09/04 00:22:37;;;;;;;11.75;5.88;;;;;;;21.98;69.60;99971.84;5104105;28;20068;-32
2023/09/04 00:25:03;;;;;;;11.13;6.13;;;;;;;21.98;70.00;99971.84;5099724;28;20093;-32
2023/09/04 00:27:28;;;;;;;13.15;6.22;;;;;;;21.97;69.76;99969.44;5105188;28;20477;-32
2023/09/04 00:29:54;;;;;;;11.32;6.25;;;;;;;21.81;70.54;99972.41;5105104;28;20545;-35
2023/09/04 00:32:19;;;;;;;9.52;4.45;;;;;;;21.87;70.36;99970.41;5105536;28;20461;-31
2023/09/04 00:34:44;;;;;;;7.63;4.38;;;;;;;22.10;69.39;99963.22;5104946;28;20716;-33
2023/09/04 00:37:19;;;;;;;9.35;4.72;;;;;;;22.00;69.18;99944.41;5105210;28;20027;-32
2023/09/04 00:40:14;;;;;;;6.60;3.80;;;;;;;21.99;70.07;99949.03;5104024;28;20058;-31
2023/09/04 00:42:39;;;;;;;7.35;3.33;;;;;;;22.17;69.38;99938.38;5104676;28;20024;-30
2023/09/04 00:45:06;;;;;;;6.57;3.15;;;;;;;21.94;70.03;99938.25;5104953;28;20030;-28
2023/09/04 00:47:32;;;;;;;6.05;3.22;;;;;;;21.95;70.11;99929.00;5105102;28;20031;-29
2023/09/04 00:49:58;;;;;;;6.45;3.28;;;;;;;21.76;71.89;99930.94;5104847;28;20042;-30
2023/09/04 00:52:25;;;;;;;12.32;4.63;;;;;;;21.83;72.98;99929.47;5105153;28;20023;-31
2023/09/04 00:54:51;;;;;;;6.70;3.17;;;;;;;21.62;76.24;99930.94;5104568;28;20393;-32
2023/09/04 00:57:38;;;;;;;4.88;3.60;;;;;;;21.61;78.10;99932.81;5105247;28;20027;-29
2023/09/04 01:00:10;;;;;;;6.13;3.33;;;;;;;21.47;78.50;99926.53;5104923;28;20412;-29
2023/09/04 01:02:51;;;;;;;5.53;3.28;;;;;;;21.17;80.77;99915.00;5108132;28;20040;-30
2023/09/04 01:05:16;;;;;;;6.68;3.45;;;;;;;21.04;81.96;99927.41;5108412;28;20030;-29
2023/09/04 01:08:05;;;;;;;5.20;3.50;;;;;;;21.20;81.35;99930.69;5108687;28;20255;-30
2023/09/04 01:11:13;;;;;;;5.68;3.33;;;;;;;21.15;80.79;99922.63;5101929;28;20050;-29
2023/09/04 01:13:46;;;;;;;6.05;3.78;;;;;;;21.34;81.69;99930.75;5064463;28;20059;-30
2023/09/04 01:16:12;;;;;;;5.88;3.38;;;;;;;21.45;80.63;99939.56;5065062;28;20120;-33
2023/09/04 01:18:59;;;;;;;6.45;3.58;;;;;;;21.50;80.67;99922.44;5101579;28;20119;-30
2023/09/04 01:21:40;;;;;;;5.00;3.37;;;;;;;21.54;80.58;99931.59;5108096;28;20034;-32
2023/09/04 01:24:08;;;;;;;5.45;3.38;;;;;;;21.42;84.71;99937.44;5108008;28;20281;-30
2023/09/04 01:26:55;;;;;;;5.22;3.28;;;;;;;21.43;81.55;99922.78;5108062;28;20496;-30
2023/09/04 01:29:24;;;;;;;8.35;3.83;;;;;;;21.68;80.89;99929.75;5108088;28;20121;-29
2023/09/04 01:32:03;;;;;;;7.90;3.78;;;;;;;21.60;82.19;99928.50;5108204;28;20087;-31
2023/09/04 01:34:37;;;;;;;7.15;3.85;;;;;;;21.53;82.68;99927.25;5108185;28;20028;-32
2023/09/04 01:37:04;;;;;;;6.28;3.78;;;;;;;21.35;82.94;99931.56;5107845;27;20020;-33
2023/09/04 01:39:30;;;;;;;5.20;3.60;;;;;;;21.43;81.99;99925.50;5108105;28;20039;-33
2023/09/04 01:41:56;;;;;;;6.57;4.18;;;;;;;21.48;82.15;99930.88;5107899;28;20028;-29
2023/09/04 01:44:22;;;;;;;7.95;4.18;;;;;;;21.16;85.19;99934.28;5108093;28;20027;-31
2023/09/04 01:46:48;;;;;;;6.13;3.95;;;;;;;21.23;86.12;99934.75;5107658;28;20035;-30
2023/09/04 01:49:15;;;;;;;9.05;4.15;;;;;;;21.38;84.03;99925.56;5107653;28;20028;-29
2023/09/04 01:51:41;;;;;;;5.88;3.90;;;;;;;21.43;84.02;99933.63;5107506;28;20047;-31
2023/09/04 01:54:07;;;;;;;6.60;3.70;;;;;;;21.23;82.68;99930.13;5107782;28;20046;-31
2023/09/04 01:56:33;;;;;;;5.50;3.67;;;;;;;20.89;86.37;99924.88;5107668;28;20092;-33
2023/09/04 01:59:19;;;;;;;6.50;3.53;;;;;;;20.86;88.25;99931.69;5107935;28;20020;-31
2023/09/04 02:01:44;;;;;;;4.88;3.40;;;;;;;21.07;83.54;99926.00;5107450;28;20469;-32
2023/09/04 02:04:09;;;;;;;5.00;3.50;;;;;;;21.04;84.74;99932.81;5107938;28;20500;-29
2023/09/04 02:06:35;;;;;;;4.93;3.33;;;;;;;21.01;83.38;99932.59;5107301;28;20061;-29
2023/09/04 02:09:33;;;;;;;6.47;3.70;;;;;;;21.11;84.20;99932.44;5107327;28;20481;-33
2023/09/04 02:11:59;;;;;;;5.55;3.22;;;;;;;21.12;85.91;99922.41;5106940;28;20069;-33
2023/09/04 02:14:24;;;;;;;5.95;3.88;;;;;;;21.32;84.23;99937.59;5107026;28;20172;-31
2023/09/04 02:16:50;;;;;;;5.65;3.55;;;;;;;21.28;83.31;99932.72;5107736;28;20028;-33
2023/09/04 02:19:15;;;;;;;5.88;3.22;;;;;;;21.35;84.52;99937.81;5107434;28;20423;-32
2023/09/04 02:21:40;;;;;;;4.65;3.33;;;;;;;21.28;81.73;99932.72;5107104;28;20115;-32
2023/09/04 02:24:09;;;;;;;5.97;3.70;;;;;;;21.44;82.33;99932.56;5107302;28;20015;-33
2023/09/04 02:26:52;;;;;;;8.55;4.00;;;;;;;21.45;81.64;99936.88;5107007;28;20031;-30
2023/09/04 02:29:33;;;;;;;5.82;3.30;;;;;;;21.40;82.35;99926.88;5107018;28;20024;-32
2023/09/04 02:32:05;;;;;;;5.82;3.72;;;;;;;21.39;82.20;99928.00;5107285;28;20030;-34
2023/09/04 02:34:31;;;;;;;4.93;3.30;;;;;;;21.34;83.58;99925.34;5107237;28;20129;-32
2023/09/04 02:37:13;;;;;;;4.65;3.28;;;;;;;21.54;83.88;99918.81;5106940;28;20081;-32
2023/09/04 02:39:38;;;;;;;5.28;3.22;;;;;;;21.08;85.04;99911.31;5106842;28;20024;-30
2023/09/04 02:42:19;;;;;;;6.20;4.10;;;;;;;21.01;86.80;99924.47;5107087;28;20016;-30
2023/09/04 02:44:45;;;;;;;6.10;3.85;;;;;;;20.88;89.59;99912.41;5107077;28;20031;-30
2023/09/04 02:47:10;;;;;;;7.25;4.03;;;;;;;20.96;90.46;99909.03;5106589;28;20039;-31
2023/09/04 02:49:36;;;;;;;5.97;3.53;;;;;;;20.99;90.97;99915.81;5106547;28;20537;-32
2023/09/04 02:52:30;;;;;;;5.28;3.90;;;;;;;20.99;87.23;99903.06;5106524;28;20040;-33
2023/09/04 02:54:56;;;;;;;6.07;4.32;;;;;;;21.24;87.35;99910.00;5104562;28;20084;-32
2023/09/04 02:57:58;;;;;;;8.38;4.30;;;;;;;21.16;87.14;99909.88;5106645;28;20030;-32
2023/09/04 03:00:52;;;;;;;5.90;4.18;;;;;;;21.19;86.63;99906.59;5023134;28;20033;-28
2023/09/04 03:03:40;;;;;;;6.75;4.22;;;;;;;21.41;86.48;99903.25;5066598;28;20036;-30
2023/09/04 03:06:49;;;;;;;;;;;;;;;21.53;83.50;99903.63;5096326;28;20031;-32
2023/09/04 03:09:16;;;;;;;7.82;4.80;;;;;;;21.46;85.36;99901.31;5105468;28;20388;-30
2023/09/04 03:11:41;;;;;;;;;;;;;;;20.94;90.54;99899.59;5106910;27;20031;-31
2023/09/04 03:14:16;;;;;;;7.53;4.90;;;;;;;20.95;90.78;99895.81;5106115;28;19915;-30
2023/09/04 03:16:41;;;;;;;7.57;4.90;;;;;;;20.92;92.33;99897.19;5106072;28;20015;-31
2023/09/04 03:19:17;;;;;;;7.47;4.75;;;;;;;21.00;91.45;99910.09;5106012;28;20083;-29
2023/09/04 03:21:43;;;;;;;7.15;4.43;;;;;;;20.93;92.34;99898.00;5105807;28;20023;-31
2023/09/04 03:24:20;;;;;;;7.65;5.10;;;;;;;20.91;92.29;99894.78;5106016;28;20083;-32
2023/09/04 03:26:46;;;;;;;7.45;5.00;;;;;;;20.74;92.50;99890.66;5105961;28;20023;-30
2023/09/04 03:29:11;;;;;;;6.72;4.90;;;;;;;20.82;93.14;99897.31;5105496;28;20079;-30
2023/09/04 03:32:16;;;;;;;7.30;5.05;;;;;;;20.89;92.52;99899.69;5105872;28;20397;-31
2023/09/04 03:34:41;;;;;;;7.03;5.25;;;;;;;21.01;92.83;99900.06;5105525;28;20134;-30
2023/09/04 03:37:16;;;;;;;7.65;5.15;;;;;;;21.04;91.53;99894.03;5105904;28;20107;-30
2023/09/04 03:39:41;;;;;;;11.05;5.05;;;;;;;21.17;90.95;99901.44;5105834;28;20035;-30
2023/09/04 03:42:07;;;;;;;8.00;5.55;;;;;;;21.40;88.81;99904.38;5106011;28;20045;-30
2023/09/04 03:44:33;;;;;;;7.35;4.70;;;;;;;21.43;89.24;99909.22;5105721;28;20023;-30
2023/09/04 03:46:58;;;;;;;8.23;5.13;;;;;;;21.22;91.04;99911.41;5105860;28;20043;-32
2023/09/04 03:49:33;;;;;;;8.98;5.28;;;;;;;21.14;91.23;99906.66;5105952;28;20023;-32
2023/09/04 03:51:59;;;;;;;7.55;5.60;;;;;;;21.10;91.86;99903.72;5105767;28;20039;-31
2023/09/04 03:54:33;;;;;;;8.73;5.15;;;;;;;21.08;90.81;99903.19;5105626;28;20032;-30
2023/09/04 03:56:58;;;;;;;9.13;4.75;;;;;;;21.04;91.00;99907.59;5105291;28;20023;-29
2023/09/04 03:59:33;;;;;;;9.20;5.25;;;;;;;21.12;90.74;99903.44;5105580;28;20097;-29
2023/09/04 04:01:59;;;;;;;10.70;4.97;;;;;;;21.06;90.56;99899.97;5105727;28;20034;-33
2023/09/04 04:04:37;;;;;;;10.32;5.30;;;;;;;21.28;89.44;99902.09;5105332;28;20031;-32
2023/09/04 04:07:03;;;;;;;7.75;4.78;;;;;;;21.19;90.28;99893.84;5100958;28;20416;-31
2023/09/04 04:09:48;;;;;;;12.63;5.65;;;;;;;21.40;88.90;99899.75;5105774;28;20489;-34
2023/09/04 04:12:40;;;;;;;9.90;5.35;;;;;;;21.59;87.72;99898.94;5105611;28;20024;-32
2023/09/04 04:15:06;;;;;;;8.82;5.50;;;;;;;21.71;83.73;99910.13;5102159;28;20571;-32
2023/09/04 04:17:41;;;;;;;9.38;5.50;;;;;;;21.46;86.45;99904.03;5105544;28;20276;-32
2023/09/04 04:20:09;;;;;;;8.88;5.15;;;;;;;21.36;87.85;99906.06;5105605;28;20706;-32
2023/09/04 04:22:44;;;;;;;10.13;5.30;;;;;;;21.62;85.94;99911.94;5105116;28;20023;-33
2023/09/04 04:25:10;;;;;;;8.77;5.95;;;;;;;21.73;85.80;99909.84;5105137;28;20027;-32
2023/09/04 04:27:45;;;;;;;9.48;5.30;;;;;;;21.63;86.30;99916.25;5105113;28;20024;-33
2023/09/04 04:30:12;;;;;;;12.43;5.88;;;;;;;21.58;86.49;99909.00;5105156;28;20020;-32
2023/09/04 04:33:01;;;;;;;11.02;5.25;;;;;;;21.35;86.22;99910.69;5105276;28;20606;-32
2023/09/04 04:35:27;;;;;;;9.35;5.05;;;;;;;21.35;86.30;99907.97;5094773;28;20563;-32
2023/09/04 04:38:02;;;;;;;16.75;9.32;;;;;;;21.52;84.02;99915.59;5109511;28;20024;-31
2023/09/04 04:40:29;;;;;;;24.80;14.45;;;;;;;21.67;80.98;99912.63;5109509;28;20061;-32
2023/09/04 04:43:14;;;;;;;20.10;11.07;;;;;;;21.89;76.23;99924.78;5109322;28;20024;-30
2023/09/04 04:46:12;;;;;;;16.58;9.80;;;;;;;21.78;78.05;99928.75;5109247;28;20512;-32
2023/09/04 04:48:38;;;;;;;20.08;10.48;;;;;;;21.75;77.84;99932.06;5037398;28;20504;-29
2023/09/04 04:51:07;;;;;;;21.55;10.07;;;;;;;21.83;76.42;99943.03;5109462;28;20073;-32
2023/09/04 04:53:33;;;;;;;17.63;9.63;;;;;;;21.74;77.32;99938.59;5108705;27;20507;-32
2023/09/04 04:56:08;;;;;;;9.02;5.65;;;;;;;21.81;75.97;99945.25;5109383;28;20550;-32
2023/09/04 04:58:33;;;;;;;7.05;4.97;;;;;;;21.65;76.63;99941.97;5108864;28;20028;-31
2023/09/04 05:01:19;;;;;;;7.47;4.22;;;;;;;21.83;75.73;99953.09;5108775;27;20762;-32
2023/09/04 05:04:12;;;;;;;6.10;4.10;;;;;;;21.81;75.60;99961.53;5108675;28;20043;-32
2023/09/04 05:06:38;;;;;;;8.60;4.22;;;;;;;21.88;74.89;99955.72;5108841;28;20027;-33
2023/09/04 05:09:12;;;;;;;13.60;6.50;;;;;;;22.06;74.43;99973.88;5108992;28;20047;-33
2023/09/04 05:11:38;;;;;;;15.48;7.53;;;;;;;21.80;74.36;99954.50;5108742;28;20084;-32
2023/09/04 05:14:15;;;;;;;15.52;7.32;;;;;;;21.88;78.19;99961.16;5108727;28;20039;-34
2023/09/04 05:16:43;;;;;;;15.02;6.80;;;;;;;22.02;75.96;99969.34;5108832;28;20488;-32
2023/09/04 05:19:21;;;;;;;17.40;8.52;;;;;;;21.84;76.49;99968.28;5108204;28;20139;-31
2023/09/04 05:21:47;;;;;;;18.35;9.65;;;;;;;21.39;79.86;99955.13;5108309;28;20076;-31
2023/09/04 05:24:12;;;;;;;15.20;7.90;;;;;;;21.41;77.54;99963.75;5108482;28;20027;-32
2023/09/04 05:26:38;;;;;;;21.73;10.60;;;;;;;21.05;82.23;99947.97;5108192;28;20781;-33
2023/09/04 05:29:29;;;;;;;20.67;9.05;;;;;;;21.23;81.15;99961.84;5108487;28;20023;-33
2023/09/04 05:32:25;;;;;;;11.55;5.95;;;;;;;21.05;84.80;99966.16;5104462;28;20092;-33
2023/09/04 05:35:25;;;;;;;9.13;5.10;;;;;;;21.02;85.64;99966.72;5107324;28;20063;-32
2023/09/04 05:37:51;;;;;;;7.78;4.47;;;;;;;20.85;84.70;99970.72;5103541;28;20040;-31
2023/09/04 05:40:34;;;;;;;8.35;4.65;;;;;;;20.55;87.76;99963.72;5108076;28;20030;-31
2023/09/04 05:43:27;;;;;;;10.07;4.90;;;;;;;20.37;89.61;99976.13;5107623;27;20492;-31
2023/09/04 05:45:53;;;;;;;9.90;5.05;;;;;;;20.13;91.09;99972.56;5107840;28;20035;-31
2023/09/04 05:48:21;;;;;;;10.07;5.97;;;;;;;19.85;94.80;99980.34;5106548;28;20043;-31
2023/09/04 05:50:50;;;;;;;11.15;6.78;;;;;;;19.85;96.20;99977.66;5107653;28;20039;-31
2023/09/04 05:53:31;;;;;;;13.35;7.38;;;;;;;19.74;96.29;99978.81;5107391;28;20562;-31
2023/09/04 05:56:32;;;;;;;11.80;7.53;;;;;;;19.72;99.51;99984.50;5107841;28;20040;-32
2023/09/04 05:58:57;;;;;;;11.73;6.90;;;;;;;19.67;100.00;99984.50;5107210;28;20042;-31
2023/09/04 06:01:43;;;;;;;10.18;6.53;;;;;;;20.00;99.42;99977.53;5107564;27;20031;-30
2023/09/04 06:04:33;;;;;;;10.45;6.28;;;;;;;19.65;100.00;99979.38;5107269;28;20420;-30
2023/09/04 06:06:59;;;;;;;9.57;7.03;;;;;;;19.79;100.00;99982.28;5107280;28;20120;-31
2023/09/04 06:09:39;;;;;;;9.45;7.25;;;;;;;19.97;100.00;99986.22;5107006;28;20458;-30
2023/09/04 06:14:53;;;;;;;14.50;9.05;;;;;;;19.73;100.00;99980.69;5107582;28;20051;-32
2023/09/04 06:17:40;;;;;;;;;;;;;;;19.90;100.00;99969.50;5108047;28;20055;-30
2023/09/04 06:20:41;;;;;;;12.02;8.05;;;;;;;19.70;100.00;99978.53;5107244;28;19908;-30
2023/09/04 06:23:02;;;;;;;15.15;9.98;;;;;;;19.59;100.00;99974.28;5105016;27;20118;-30
2023/09/04 06:25:46;;;;;;;12.35;8.95;;;;;;;19.28;100.00;99977.19;5107043;27;20411;-31
2023/09/04 06:28:12;;;;;;;16.38;10.60;;;;;;;19.22;100.00;99975.59;5107218;28;20034;-30
2023/09/04 06:30:38;;;;;;;19.05;11.88;;;;;;;19.06;100.00;99977.53;5107051;28;20036;-32
2023/09/04 06:33:04;;;;;;;17.08;12.13;;;;;;;19.00;100.00;99967.84;5106938;28;20028;-30
2023/09/04 06:35:29;;;;;;;15.50;11.20;;;;;;;18.99;100.00;99980.56;5106419;28;20063;-30
2023/09/04 06:37:55;;;;;;;18.55;11.57;;;;;;;19.02;100.00;99979.19;5106600;28;20039;-30
2023/09/04 06:40:21;;;;;;;16.42;10.68;;;;;;;19.05;100.00;99981.34;5106854;28;20024;-29
2023/09/04 06:43:00;;;;;;;14.82;9.80;;;;;;;18.88;100.00;99976.28;5105344;27;20161;-31
2023/09/04 06:45:26;;;;;;;14.40;10.18;;;;;;;18.95;100.00;99994.91;5085884;28;20043;-32
2023/09/04 06:48:02;;;;;;;14.52;9.27;;;;;;;18.97;100.00;99998.13;5086199;28;20020;-32
2023/09/04 06:50:27;;;;;;;14.63;9.93;;;;;;;18.83;100.00;100003.31;5089366;28;20040;-30
2023/09/04 06:53:05;;;;;;;14.88;9.70;;;;;;;19.00;100.00;100006.50;5097207;28;20017;-31
2023/09/04 06:55:30;;;;;;;12.00;8.00;;;;;;;19.04;100.00;100012.16;5086480;28;20028;-30
2023/09/04 06:58:16;;;;;;;14.23;8.88;;;;;;;19.24;100.00;100020.16;5085855;28;20036;-30
2023/09/04 07:00:41;;;;;;;15.13;9.20;;;;;;;19.20;100.00;100021.00;5085205;28;20497;-31
2023/09/04 07:03:07;;;;;;;15.13;9.77;;;;;;;19.18;100.00;100025.88;5085868;28;20020;-31
2023/09/04 07:05:54;;;;;;;10.73;7.53;;;;;;;19.17;100.00;100033.19;5085704;28;20028;-31
2023/09/04 07:08:19;;;;;;;9.75;7.47;;;;;;;19.28;100.00;100036.66;5086096;28;20128;-30
2023/09/04 07:10:51;;;;;;;9.45;6.55;;;;;;;19.01;100.00;100037.03;5085453;28;20027;-32
2023/09/04 07:13:18;;;;;;;7.03;5.28;;;;;;;18.91;100.00;100028.97;5085915;28;20028;-31
2023/09/04 07:15:44;;;;;;;11.85;7.47;;;;;;;19.01;100.00;100034.34;5096635;28;20139;-31
2023/09/04 07:18:37;;;;;;;9.90;6.65;;;;;;;19.06;100.00;100047.81;5105134;28;20040;-31
2023/09/04 07:21:03;;;;;;;9.38;5.72;;;;;;;18.98;100.00;100053.78;5097930;28;20044;-31
2023/09/04 07:23:28;;;;;;;7.68;6.15;;;;;;;19.01;100.00;100058.66;5105128;28;20104;-32
2023/09/04 07:26:13;;;;;;;;;;;;;;;;;;;;;
2023/09/04 07:28:50;;;;;;;8.70;5.53;;;;;;;19.02;100.00;100052.16;5099490;28;20035;-30
2023/09/04 07:31:20;;;;;;;7.95;5.68;;;;;;;19.07;100.00;100052.16;5105607;28;20069;-30
2023/09/04 07:33:49;;;;;;;7.95;6.32;;;;;;;18.95;100.00;100057.06;5105786;28;20098;-30
2023/09/04 07:36:30;;;;;;;8.98;6.72;;;;;;;18.90;100.00;100059.75;5105257;28;20177;-30
2023/09/04 07:38:55;;;;;;;8.57;5.43;;;;;;;19.08;100.00;100059.16;5105985;28;20984;-30
2023/09/04 07:41:21;;;;;;;8.95;6.85;;;;;;;19.05;100.00;100059.72;5104155;28;20500;-31
2023/09/04 07:44:01;;;;;;;8.85;6.72;;;;;;;19.11;100.00;100061.34;5104482;28;20080;-29
2023/09/04 07:46:27;;;;;;;8.52;5.78;;;;;;;19.03;100.00;100073.50;5105397;28;20028;-31
2023/09/04 07:49:12;;;;;;;10.05;6.32;;;;;;;18.93;100.00;100078.16;5105384;28;20081;-29
2023/09/04 07:52:03;;;;;;;9.00;6.28;;;;;;;18.94;100.00;100077.03;5105034;28;20744;-30
2023/09/04 07:54:29;;;;;;;9.07;6.50;;;;;;;19.19;100.00;100060.75;5103956;28;20043;-29
2023/09/04 07:57:19;;;;;;;9.07;6.60;;;;;;;19.32;100.00;100072.88;5105171;28;20024;-29
2023/09/04 08:00:04;;;;;;;7.65;5.95;;;;;;;19.36;100.00;100073.94;5104954;28;20530;-29
2023/09/04 08:02:30;;;;;;;9.95;6.28;;;;;;;19.48;100.00;100071.72;5104775;28;20041;-31
2023/09/04 08:05:13;;;;;;;10.90;6.80;;;;;;;19.58;100.00;100060.03;5105482;28;20027;-31
2023/09/04 08:08:09;;;;;;;8.85;5.95;;;;;;;19.56;100.00;100062.22;5105582;28;20031;-29
2023/09/04 08:11:08;;;;;;;14.38;8.52;;;;;;;19.54;100.00;100063.59;5104852;28;20027;-31
2023/09/04 08:13:34;;;;;;;12.80;8.07;;;;;;;19.49;100.00;100061.69;5105761;28;20131;-31
2023/09/04 08:16:02;;;;;;;11.93;7.85;;;;;;;19.61;100.00;100058.66;5105337;28;20411;-31
2023/09/04 08:18:31;;;;;;;8.88;6.25;;;;;;;19.58;100.00;100049.22;5105445;28;20054;-31
2023/09/04 08:21:25;;;;;;;8.32;6.18;;;;;;;19.72;100.00;100068.38;5105433;28;20122;-31
2023/09/04 08:23:51;;;;;;;6.85;4.90;;;;;;;19.71;100.00;100068.66;5103303;28;20502;-30
2023/09/04 08:26:29;;;;;;;7.70;5.20;;;;;;;19.61;100.00;100061.38;5104949;28;20552;-30
2023/09/04 08:28:54;;;;;;;8.35;5.55;;;;;;;19.68;100.00;100062.69;5105139;28;20027;-31
2023/09/04 08:31:20;;;;;;;7.13;5.78;;;;;;;19.93;100.00;100060.94;5104866;28;20024;-31
2023/09/04 08:34:08;;;;;;;7.82;5.65;;;;;;;20.05;100.00;100052.47;5105319;28;20488;-32
2023/09/04 08:36:34;;;;;;;7.18;5.65;;;;;;;20.07;100.00;100061.13;5104740;28;20557;-31
2023/09/04 08:39:09;;;;;;;6.70;5.38;;;;;;;20.20;100.00;100065.06;5105240;28;20429;-31
2023/09/04 08:41:36;;;;;;;7.32;5.55;;;;;;;20.25;100.00;100067.75;5104732;28;20944;-31
2023/09/04 08:44:03;;;;;;;7.50;4.88;;;;;;;20.29;100.00;100055.28;5105122;28;20031;-30
2023/09/04 08:46:30;;;;;;;5.88;4.03;;;;;;;20.53;100.00;100068.03;5104782;28;20142;-30
2023/09/04 08:49:16;;;;;;;6.20;4.30;;;;;;;20.47;100.00;100054.56;5104994;28;20027;-33
2023/09/04 08:51:44;;;;;;;7.63;4.87;;;;;;;20.59;100.00;100056.09;5104484;28;20097;-28
2023/09/04 08:54:34;;;;;;;6.88;4.38;;;;;;;20.59;99.67;100066.94;5104693;28;20711;-34
2023/09/04 08:57:00;;;;;;;8.55;5.00;;;;;;;20.57;99.33;100059.06;5105023;28;20646;-30
2023/09/04 08:59:35;;;;;;;5.82;4.13;;;;;;;20.59;98.25;100067.75;5104689;28;20041;-32
2023/09/04 09:02:04;;;;;;;6.30;4.65;;;;;;;20.61;99.71;100065.53;5104709;28;20035;-30
2023/09/04 09:04:35;;;;;;;5.90;4.90;;;;;;;20.42;99.67;100073.56;5105095;28;20080;-30
2023/09/04 09:07:03;;;;;;;8.80;5.53;;;;;;;20.27;100.00;100068.28;5104606;28;20462;-30
2023/09/04 09:09:49;;;;;;;8.23;5.13;;;;;;;20.17;100.00;100068.38;5104937;28;20089;-31
2023/09/04 09:12:41;;;;;;;7.35;5.22;;;;;;;20.25;100.00;100070.47;5104906;28;20092;-32
2023/09/04 09:15:07;;;;;;;7.53;4.93;;;;;;;20.09;100.00;100067.06;5103584;28;20127;-30
2023/09/04 09:17:53;;;;;;;6.60;5.07;;;;;;;20.42;100.00;100059.22;5105081;28;20144;-30
2023/09/04 09:20:39;;;;;;;7.25;4.95;;;;;;;20.67;100.00;100052.78;5104247;28;20031;-30
2023/09/04 09:23:05;;;;;;;11.93;8.27;;;;;;;20.56;100.00;100062.88;5107386;28;20027;-33
2023/09/04 09:25:54;;;;;;;7.07;5.55;;;;;;;20.05;100.00;100060.59;5108179;28;20031;-32
2023/09/04 09:28:50;;;;;;;6.93;5.15;;;;;;;20.21;100.00;100074.84;5108140;28;20024;-31
2023/09/04 09:31:46;;;;;;;6.72;5.38;;;;;;;20.25;100.00;100062.34;5087753;28;20044;-28
2023/09/04 09:34:12;;;;;;;6.88;5.65;;;;;;;20.26;100.00;100066.66;5108194;28;20515;-30
2023/09/04 09:36:46;;;;;;;7.90;5.93;;;;;;;20.36;100.00;100069.28;5108222;28;20036;-28
2023/09/04 09:39:14;;;;;;;8.27;6.80;;;;;;;20.23;100.00;100059.09;5107516;28;20035;-29
2023/09/04 09:41:50;;;;;;;7.28;6.22;;;;;;;20.23;100.00;100059.91;5107857;27;20867;-31
2023/09/04 09:44:15;;;;;;;7.68;6.72;;;;;;;20.40;100.00;100070.31;5107692;28;20530;-29
2023/09/04 09:46:52;;;;;;;10.23;7.03;;;;;;;20.25;100.00;100043.38;5108340;28;20028;-28
2023/09/04 09:49:17;;;;;;;10.13;7.68;;;;;;;20.29;100.00;100057.97;5107840;28;20023;-31
2023/09/04 09:51:56;;;;;;;9.30;7.35;;;;;;;20.34;100.00;100060.63;5107390;28;20044;-31
2023/09/04 09:55:00;;;;;;;9.82;8.52;;;;;;;20.39;100.00;100062.47;5107808;28;20043;-28
2023/09/04 09:57:58;;;;;;;9.55;7.45;;;;;;;20.30;100.00;100056.88;5107385;28;20035;-28
2023/09/04 10:00:53;;;;;;;9.75;8.02;;;;;;;20.57;100.00;100044.72;5094714;28;20135;-33
2023/09/04 10:03:19;;;;;;;9.57;8.38;;;;;;;20.37;100.00;100043.00;5107551;28;20027;-31
2023/09/04 10:06:04;;;;;;;9.07;8.07;;;;;;;20.27;100.00;100054.75;5107707;28;20024;-31
2023/09/04 10:08:57;;;;;;;11.38;8.95;;;;;;;20.20;100.00;100048.81;5107560;28;20523;-32
2023/09/04 10:11:24;;;;;;;12.15;8.77;;;;;;;20.07;100.00;100036.75;5104376;28;20052;-32
2023/09/04 10:14:03;;;;;;;8.93;7.00;;;;;;;20.01;100.00;100038.69;5105997;28;20161;-31
2023/09/04 10:16:35;;;;;;;8.57;7.35;;;;;;;19.90;100.00;100044.44;5086811;28;20020;-31
2023/09/04 10:19:02;;;;;;;11.23;7.90;;;;;;;19.65;100.00;100022.66;5086873;28;20111;-32
2023/09/04 10:22:03;;;;;;;9.50;6.88;;;;;;;20.06;100.00;100038.66;5086688;28;20032;-30
2023/09/04 10:24:59;;;;;;;8.95;7.28;;;;;;;19.80;100.00;100034.53;5084848;28;20032;-30
2023/09/04 10:27:41;;;;;;;10.00;6.90;;;;;;;19.65;100.00;100019.94;5084088;28;20036;-30
2023/09/04 10:30:11;;;;;;;11.13;7.35;;;;;;;19.71;100.00;100028.06;5086965;28;20036;-31
2023/09/04 10:33:15;;;;;;;9.30;6.80;;;;;;;19.81;100.00;100038.84;5086791;28;20043;-31
2023/09/04 10:36:04;;;;;;;17.67;7.57;;;;;;;20.02;100.00;100034.91;5062718;28;20028;-31
2023/09/04 10:38:30;;;;;;;10.27;8.02;;;;;;;19.92;100.00;100031.44;5063608;28;21027;-31
2023/09/04 10:41:06;;;;;;;10.65;8.20;;;;;;;19.91;100.00;100036.06;5077537;28;20047;-30
2023/09/04 10:44:08;;;;;;;9.35;8.23;;;;;;;19.75;100.00;100038.06;5086315;28;20047;-30
2023/09/04 10:46:34;;;;;;;11.48;9.43;;;;;;;19.85;100.00;100048.00;5086137;28;20043;-30
2023/09/04 10:49:30;;;;;;;11.55;9.18;;;;;;;19.61;100.00;100062.19;5086407;28;20032;-30
2023/09/04 10:52:10;;;;;;;9.65;7.20;;;;;;;19.58;100.00;100070.88;5076298;28;20480;-30
2023/09/04 10:54:35;;;;;;;11.38;6.70;;;;;;;19.50;100.00;100063.34;5086318;28;20059;-30
2023/09/04 10:57:15;;;;;;;9.00;6.32;;;;;;;19.35;100.00;100055.28;5085843;28;20052;-29
2023/09/04 11:00:10;;;;;;;9.85;6.75;;;;;;;19.37;100.00;100053.09;5085781;28;20044;-29
2023/09/04 11:02:35;;;;;;;9.80;6.88;;;;;;;19.42;100.00;100066.63;5084957;28;20027;-29
2023/09/04 11:05:15;;;;;;;8.93;6.95;;;;;;;19.54;100.00;100056.28;5085802;28;20024;-29
2023/09/04 11:07:41;;;;;;;10.98;8.10;;;;;;;19.58;100.00;100054.63;5086223;28;20401;-32
2023/09/04 11:10:17;;;;;;;8.13;6.32;;;;;;;19.58;100.00;100060.03;5086004;28;20515;-29
2023/09/04 11:13:00;;;;;;;;;;;;;;;;;;;;;
2023/09/04 11:15:27;;;;;;;10.50;8.52;;;;;;;19.70;100.00;100045.38;5077305;28;20040;-30
2023/09/04 11:18:25;;;;;;;13.23;9.43;;;;;;;19.58;100.00;100035.69;5085597;28;20031;-30
2023/09/04 11:20:45;;;;;;;11.02;7.70;;;;;;;19.92;100.00;100045.81;5083297;28;20040;-32
2023/09/04 11:23:40;;;;;;;11.50;8.85;;;;;;;20.33;100.00;100033.81;5085532;28;20093;-32
2023/09/04 11:26:29;;;;;;;10.98;8.63;;;;;;;20.05;100.00;100030.81;5065152;28;20164;-29
2023/09/04 11:29:31;;;;;;;10.27;8.32;;;;;;;20.10;100.00;100032.66;5081979;28;20787;-29
2023/09/04 11:31:57;;;;;;;11.98;8.55;;;;;;;20.18;100.00;100023.94;5061911;28;20021;-30
2023/09/04 11:34:31;;;;;;;12.32;9.07;;;;;;;20.26;100.00;100034.97;5080729;28;20047;-30
2023/09/04 11:36:57;;;;;;;12.10;8.15;;;;;;;20.02;100.00;100037.63;5085137;28;20546;-29
2023/09/04 11:39:31;;;;;;;11.48;8.93;;;;;;;20.23;100.00;100032.03;5085547;28;20024;-31
2023/09/04 11:41:57;;;;;;;11.55;8.80;;;;;;;20.42;100.00;100030.22;5085184;28;20421;-29
2023/09/04 11:44:42;;;;;;;11.65;8.93;;;;;;;20.41;100.00;100023.19;5085436;28;20031;-29
2023/09/04 11:47:11;;;;;;;11.30;9.13;;;;;;;20.45;100.00;100024.25;5084347;28;20160;-29
2023/09/04 11:49:36;;;;;;;10.35;8.70;;;;;;;20.25;100.00;100019.81;5084953;28;20092;-29
2023/09/04 11:52:02;;;;;;;10.27;9.18;;;;;;;20.32;100.00;100030.31;5084800;28;20052;-30
2023/09/04 11:54:36;;;;;;;17.73;10.88;;;;;;;19.98;100.00;100022.19;5085358;28;20043;-30
2023/09/04 11:57:05;;;;;;;14.95;11.70;;;;;;;20.02;100.00;100029.50;5085055;28;20024;-29
2023/09/04 11:59:39;;;;;;;12.52;10.35;;;;;;;19.84;100.00;100019.34;5084474;28;20066;-32
2023/09/04 12:02:07;;;;;;;13.65;11.23;;;;;;;20.09;100.00;100022.94;5084736;28;20024;-30
2023/09/04 12:04:41;;;;;;;13.63;11.48;;;;;;;20.24;100.00;100022.81;5084334;28;20032;-30
2023/09/04 12:07:07;;;;;;;12.63;10.02;;;;;;;20.03;100.00;100036.50;5084832;28;20071;-30